x

Buoy E01 - Central Maine Shelf (44032) Weather Station

6:04 - Sun 25th Jan 2015 All times are EST. -5 hours from GMT.

  • Wind
    25mph, 31mph gusts
  • Sea Temp 43°f
  • Aire Temp 27°f
  • Sea Pressure 1007.6mb
  • Buoy E01 - Central Maine Shelf
  • Buoy E01 - Central Maine Shelf

More Historic Weather Station data

Upgrade to MSW Pro to gain access to the past 30 days of data for over 8000 Wavebouys and Weather Stations around the globe.

Join Pro

Comparision Forecast

View Surf forecast
   
dom 01/25 6:04  -   -  25 31 mph 1007.6mb 43f 27f
5:04 10ft 11s 29 40 mph 1005.6mb 43f 28f
4:04 4.5ft 4s 31 43 mph 1003.5mb 43f 30f
3:04 4.5ft 6s 22 27 mph 1002mb 43f 32f
2:04 5ft 6s 22 27 mph 1000.2mb 43f 32f
1:04 6ft 6s 29 36 mph 999mb 43f 33f
12:04 6ft 6s 27 34 mph 998.4mb 43f 33f
11:04 7ft 6s 25 31 mph 997.3mb 43f 37f
10:04 6.5ft 6s 27 34 mph 996.3mb 43f 39f
9:04 6.5ft 6s 27 31 mph 995.1mb 43f 38f
8:04  -   -  31 38 mph 994mb 43f 38f
7:04 11.5ft 11s 20 25 mph 993.4mb 43f 36f
6:04  -   -  22 27 mph 992.2mb 43f 36f
5:04  -   -  25 29 mph 991mb 43f 37f
4:04 8.5ft 11s 20 25 mph 989.9mb 43f 36f
3:04 7ft 11s 22 29 mph 989mb 43f 35f
2:04 4ft 5s 20 27 mph 988.2mb 43f 35f
1:04 3.5ft 8s 22 27 mph 986.7mb 43f 34f
12:04 3.5ft 3s 20 25 mph 985.8mb 43f 33f
sáb 01/24 11:04 2.5ft 4s 18 22 mph 985.7mb 43f 31f
10:04 4ft 5s 25 31 mph 985mb 43f 31f
9:04 4.5ft 5s 27 31 mph 984.2mb 43f 31f
8:04 4ft 4s 29 36 mph 984mb 42f 31f
7:04 4.5ft 5s 27 31 mph 985.3mb 42f 32f
6:04 4ft 4s 25 29 mph 985.1mb 43f 34f
5:04 3.5ft 4s 27 31 mph 987.4mb 43f 34f
4:04 3.5ft 4s 20 27 mph 990mb 43f 33f
3:04 3ft 3s 20 25 mph 992.7mb 43f 33f
2:04 3ft 6s 18 20 mph 994.1mb 43f 33f
1:04 3ft 6s 11 13 mph 996.4mb 43f 34f
12:04 3.5ft 6s 7 9 mph 999.2mb 43f 33f
11:04 3.5ft 6s 9 11 mph 1001.7mb 43f 34f
10:04 4.5ft 6s 13
mph
1003.5mb 43f 34f
9:04 5ft 6s 20 25 mph 1005.2mb 43f 37f
8:04 5.5ft 6s 20 25 mph 1005.8mb 43f 38f
7:04 5ft 6s 20 25 mph 1006.8mb 43f 38f
6:04 5ft 6s 18 25 mph 1006.5mb 43f 37f
5:04 5.5ft 6s 18 22 mph 1006.5mb 43f 37f
4:04 5.5ft 6s 20 25 mph 1007.1mb 43f 37f
3:04 5.5ft 6s 20 25 mph 1008.3mb 43f 36f
2:04 6ft 6s 22 27 mph 1009.1mb 43f 36f
1:04 7ft 6s 22 27 mph 1009.2mb 43f 36f
12:04 6ft 5s 22 29 mph 1010.3mb 43f 37f
vie 01/23 11:04 5.5ft 5s 25 31 mph 1011.1mb 43f 37f
10:04 5ft 5s 25 31 mph 1012.2mb 43f 37f
9:04 4.5ft 5s 22 29 mph 1013.3mb 43f 37f
8:04 3.5ft 5s 22 27 mph 1014.1mb 43f 36f
7:04 4.5ft 11s 20 27 mph 1014.9mb 43f 36f
6:04 4.5ft 11s 13 18 mph 1015.4mb 43f 34f
5:04 4.5ft 11s 13 18 mph 1015.8mb 43f 32f
4:04 5ft 11s 13 18 mph 1016.2mb 43f 32f
3:04 4.5ft 11s 11 16 mph 1016.5mb 43f 31f
2:04  -   -  13 18 mph 1017.3mb 43f 31f
1:04 4.5ft 11s 13 16 mph 1018.4mb 44f 31f
12:04 1.6ft 3s 13 18 mph 1019.5mb 43f 31f
11:04  -   -  13 18 mph 1020.8mb 43f 30f
10:04  -   -  13 18 mph 1021.6mb 43f 30f
9:04 3.5ft 11s 16 20 mph 1022mb 43f 28f
8:04 4.5ft 11s 11 16 mph 1022.3mb 43f 27f
7:04 5ft 11s 16 18 mph 1022.3mb 43f 26f
6:04  -   -  18 20 mph 1022.5mb 43f 27f
5:04 4.5ft 11s 20 25 mph 1022.2mb 43f 27f
4:04 2.5ft 3s 18 20 mph 1021.9mb 43f 27f
3:04 3.5ft 4s 22 27 mph 1021.5mb 44f 28f
2:04 3ft 4s 22 27 mph 1020.8mb 43f 29f
1:04 3ft 3s 25 31 mph 1020.1mb 44f 30f
12:04 2.5ft 3s 18 22 mph 1020.2mb 43f 32f
jue 01/22 11:04 2ft 3s 18 20 mph 1020.3mb 44f 34f
10:04 2.5ft 6s 13 18 mph 1020.4mb 44f 34f
9:04 2.5ft 6s 9 11 mph 1020.5mb 44f 33f
8:04 2.5ft 6s 7 9 mph 1021.1mb 44f 33f
7:04  -   -  9 13 mph 1021.5mb 43f 33f
6:04 3ft 8s 11 13 mph 1021.7mb 43f 33f
5:04 3ft 11s 4 9 mph 1021.3mb 43f 32f
4:04 2.5ft 5s 4 7 mph 1021.1mb 43f 33f
3:04 3.5ft 11s 4 9 mph 1020.6mb 43f 32f
1:04 3.5ft 5s 9 13 mph 1020.6mb 43f 29f
12:04 3.5ft 5s 9 13 mph 1021.4mb 44f 28f
11:04 3ft 4s 16 18 mph 1022mb 43f 29f
10:04 3.5ft 4s 16 18 mph 1022.4mb 43f 30f
9:04 3.5ft 8s 16 18 mph 1022.2mb 43f 30f
8:04 4ft 8s 18 22 mph 1021.7mb 43f 31f
7:04 4ft 8s 20 25 mph 1021.1mb 43f 31f
6:04 3ft 4s 20 25 mph 1021.4mb 43f 31f
5:04 3.5ft 8s 18 22 mph 1021.7mb 43f 32f
4:04 2.5ft 3s 20 22 mph 1021.7mb 43f 32f
3:04 1.6ft 3s 16 20 mph 1022.1mb 43f 33f
2:04 3ft 11s 13 16 mph 1022.5mb 43f 33f
1:04  -   -  9 13 mph 1022.5mb 43f 33f